Time;durP1;ratioP1;P1;durP2;ratioP2;P2;SDS_P1;SDS_P2;PMS_P1;PMS_P2;Temp;Humidity;BMP_temperature;BMP_pressure;BME280_temperature;BME280_humidity;BME280_pressure;Samples;Min_cycle;Max_cycle;Signal;HPM_P1;HPM_P2
2022/10/21 00:02:06;;;;;;;6.60;3.87;;;9.50;99.90;;;;;;5055097;28;20173;-84
2022/10/21 00:04:32;;;;;;;6.40;4.23;;;9.40;99.90;;;;;;5054994;28;20704;-85
2022/10/21 00:06:57;;;;;;;6.70;3.50;;;9.50;99.90;;;;;;5054479;28;20306;-84
2022/10/21 00:09:23;;;;;;;6.27;4.30;;;9.40;99.90;;;;;;5054859;28;20202;-84
2022/10/21 00:11:48;;;;;;;6.80;5.17;;;9.40;99.90;;;;;;5054948;28;20241;-84
2022/10/21 00:14:14;;;;;;;7.50;3.80;;;9.40;99.90;;;;;;5054395;28;20213;-85
2022/10/21 00:16:39;;;;;;;6.73;3.60;;;9.50;99.90;;;;;;5056349;28;20269;-84
2022/10/21 00:19:05;;;;;;;7.70;4.43;;;9.50;99.90;;;;;;5061306;28;20188;-85
2022/10/21 00:21:30;;;;;;;7.10;4.30;;;9.50;99.90;;;;;;5053998;28;20178;-86
2022/10/21 00:23:56;;;;;;;6.10;4.10;;;9.50;99.90;;;;;;5054230;28;20175;-85
2022/10/21 00:26:21;;;;;;;7.33;4.57;;;9.50;99.90;;;;;;5054130;28;20212;-84
2022/10/21 00:28:47;;;;;;;8.07;6.00;;;9.50;99.90;;;;;;5054135;28;20169;-85
2022/10/21 00:31:14;;;;;;;6.50;4.10;;;9.50;99.90;;;;;;5053928;28;20206;-85
2022/10/21 00:33:40;;;;;;;8.90;4.17;;;9.60;99.90;;;;;;5054056;28;20212;-84
2022/10/21 00:36:06;;;;;;;7.20;4.60;;;9.50;99.90;;;;;;5053926;28;20464;-84
2022/10/21 00:38:33;;;;;;;7.30;4.30;;;9.50;99.90;;;;;;5054063;28;20420;-86
2022/10/21 00:41:00;;;;;;;8.20;5.07;;;9.50;99.90;;;;;;5054023;28;20422;-83
2022/10/21 00:43:27;;;;;;;5.20;3.67;;;9.50;99.90;;;;;;5054025;28;20414;-84
2022/10/21 00:45:58;;;;;;;6.13;3.83;;;9.50;99.90;;;;;;5035874;28;20780;-84
2022/10/21 00:48:34;;;;;;;5.33;4.10;;;9.50;99.90;;;;;;5054007;28;20495;-84
2022/10/21 00:51:07;;;;;;;7.67;4.53;;;9.50;99.90;;;;;;5053543;28;20999;-84
2022/10/21 00:53:35;;;;;;;6.30;4.00;;;9.50;99.90;;;;;;5053694;28;20500;-84
2022/10/21 00:56:07;;;;;;;6.73;4.13;;;9.50;99.90;;;;;;5053727;28;20996;-84
2022/10/21 00:58:34;;;;;;;4.53;3.40;;;9.50;99.90;;;;;;5053693;28;20420;-84
2022/10/21 01:01:02;;;;;;;8.00;5.17;;;9.50;99.90;;;;;;5053621;28;20416;-83
2022/10/21 01:03:30;;;;;;;7.80;4.77;;;9.50;99.90;;;;;;5053444;28;20444;-84
2022/10/21 01:05:58;;;;;;;6.67;5.10;;;9.50;99.90;;;;;;5053341;28;20813;-84
2022/10/21 01:08:24;;;;;;;5.23;4.37;;;9.50;99.90;;;;;;5053444;28;20405;-86
2022/10/21 01:10:50;;;;;;;10.33;5.80;;;9.50;99.90;;;;;;5053241;28;20513;-85
2022/10/21 01:13:39;;;;;;;9.03;5.53;;;9.50;99.90;;;;;;5053188;28;20410;-85
2022/10/21 01:16:05;;;;;;;8.23;5.43;;;9.60;99.90;;;;;;5035637;28;20423;-85
2022/10/21 01:19:01;;;;;;;7.57;5.40;;;9.50;99.90;;;;;;5053071;28;20410;-84
2022/10/21 01:21:34;;;;;;;7.60;5.00;;;9.60;99.90;;;;;;5052801;28;20182;-84
2022/10/21 01:24:34;;;;;;;8.33;4.63;;;9.60;99.90;;;;;;5053295;28;20408;-84
2022/10/21 01:27:31;;;;;;;10.03;6.33;;;9.60;99.90;;;;;;5052305;28;20419;-84
2022/10/21 01:30:16;;;;;;;6.90;4.50;;;9.70;99.90;;;;;;4982502;28;20476;-85
2022/10/21 01:33:03;;;;;;;6.37;4.07;;;9.70;99.90;;;;;;5053095;28;20408;-85
2022/10/21 01:36:00;;;;;;;8.90;5.40;;;9.60;99.90;;;;;;5053055;28;20423;-84
2022/10/21 01:38:42;;;;;;;6.80;5.00;;;9.60;99.90;;;;;;5052940;28;20423;-85
2022/10/21 01:41:26;;;;;;;7.53;4.60;;;9.60;99.90;;;;;;5052811;28;20419;-84
2022/10/21 01:44:08;;;;;;;9.07;4.30;;;9.60;99.90;;;;;;5052880;28;20412;-85
2022/10/21 01:46:45;;;;;;;10.17;5.30;;;9.50;99.90;;;;;;5051795;28;20741;-85
2022/10/21 01:49:28;;;;;;;8.40;4.70;;;9.50;99.90;;;;;;5052743;28;20416;-85
2022/10/21 01:51:54;;;;;;;7.97;4.83;;;9.50;99.90;;;;;;5052419;28;20420;-85
2022/10/21 01:54:25;;;;;;;6.17;4.70;;;9.40;99.90;;;;;;5052837;28;20419;-85
2022/10/21 01:56:52;;;;;;;9.13;4.70;;;9.40;99.90;;;;;;5052881;28;20175;-85
2022/10/21 01:59:19;;;;;;;6.57;4.93;;;9.40;99.90;;;;;;5052712;28;20422;-84
2022/10/21 02:01:47;;;;;;;7.70;5.40;;;9.40;99.90;;;;;;5052532;28;20776;-84
2022/10/21 02:04:17;;;;;;;9.13;5.23;;;9.30;99.90;;;;;;5052272;28;20446;-85
2022/10/21 02:06:43;;;;;;;8.73;4.70;;;9.40;99.90;;;;;;5052171;28;20522;-85
2022/10/21 02:09:08;;;;;;;16.33;6.80;;;9.40;99.90;;;;;;5052675;28;20401;-86
2022/10/21 02:11:37;;;;;;;8.23;5.33;;;9.40;99.90;;;;;;5052640;28;20662;-86
2022/10/21 02:14:27;;;;;;;10.63;5.80;;;9.40;99.90;;;;;;5052553;28;20165;-84
2022/10/21 02:17:00;;;;;;;10.40;5.73;;;9.40;99.90;;;;;;5041722;28;20433;-84
2022/10/21 02:19:26;;;;;;;11.10;5.70;;;9.40;99.90;;;;;;5052525;28;20420;-85
2022/10/21 02:21:54;;;;;;;10.00;5.80;;;9.30;99.90;;;;;;5052155;28;20413;-87
2022/10/21 02:24:43;;;;;;;11.70;6.90;;;9.40;99.90;;;;;;5052416;28;20410;-84
2022/10/21 02:27:09;;;;;;;13.87;6.60;;;9.40;99.90;;;;;;5052564;28;20417;-85
2022/10/21 02:29:38;;;;;;;8.97;5.57;;;9.40;99.90;;;;;;5052456;28;20456;-83
2022/10/21 02:32:13;;;;;;;7.13;4.87;;;9.30;99.90;;;;;;5052413;28;20206;-84
2022/10/21 02:35:25;;;;;;;13.47;6.60;;;9.30;99.90;;;;;;5052366;28;20512;-85
2022/10/21 02:38:11;;;;;;;9.33;5.60;;;9.30;99.90;;;;;;5052275;28;20497;-86
2022/10/21 02:40:59;;;;;;;9.07;5.57;;;9.30;99.90;;;;;;5056387;28;20411;-86
2022/10/21 02:43:55;;;;;;;11.40;8.00;;;9.30;99.90;;;;;;5055727;28;20429;-87
2022/10/21 02:46:20;;;;;;;8.27;5.10;;;9.40;99.90;;;;;;5052836;28;20925;-84
2022/10/21 02:48:47;;;;;;;9.80;6.07;;;9.40;99.90;;;;;;5056315;28;20511;-86
2022/10/21 02:51:13;;;;;;;6.83;5.10;;;9.30;99.90;;;;;;5055893;28;20217;-86
2022/10/21 02:53:39;;;;;;;10.07;6.17;;;9.40;99.90;;;;;;5038712;28;20467;-87
2022/10/21 02:56:05;;;;;;;6.70;4.87;;;9.40;99.90;;;;;;5068378;28;20478;-86
2022/10/21 02:58:31;;;;;;;8.33;4.53;;;9.40;99.90;;;;;;5074770;28;20920;-83
2022/10/21 03:00:57;;;;;;;11.20;6.53;;;9.40;99.90;;;;;;5075147;28;20461;-84
2022/10/21 03:03:23;;;;;;;10.63;6.20;;;9.40;99.90;;;;;;5076170;28;20178;-85
2022/10/21 03:05:48;;;;;;;8.60;5.93;;;9.40;99.90;;;;;;5075257;28;20462;-86
2022/10/21 03:08:14;;;;;;;12.17;4.93;;;9.40;99.90;;;;;;5075802;28;20428;-85
2022/10/21 03:10:42;;;;;;;10.93;5.90;;;9.40;99.90;;;;;;5075815;28;20200;-85
2022/10/21 03:13:08;;;;;;;7.47;4.63;;;9.40;99.90;;;;;;5075847;28;20168;-85
2022/10/21 03:15:33;;;;;;;8.47;5.40;;;9.40;99.90;;;;;;5075832;28;20422;-85
2022/10/21 03:17:59;;;;;;;11.07;6.07;;;9.40;99.90;;;;;;5075929;28;20179;-83
2022/10/21 03:20:24;;;;;;;7.63;5.60;;;9.40;99.90;;;;;;5075872;28;20176;-85
2022/10/21 03:22:50;;;;;;;10.40;5.20;;;9.40;99.90;;;;;;5075598;28;20172;-85
2022/10/21 03:25:15;;;;;;;8.00;5.80;;;9.40;99.90;;;;;;5075778;28;20176;-87
2022/10/21 03:27:44;;;;;;;8.70;5.73;;;9.40;99.90;;;;;;5075753;28;20176;-84
2022/10/21 03:30:09;;;;;;;10.60;5.90;;;9.40;99.90;;;;;;5075444;28;20240;-85
2022/10/21 03:32:35;;;;;;;10.30;6.53;;;9.40;99.90;;;;;;5075683;28;20451;-84
2022/10/21 03:35:01;;;;;;;8.90;5.53;;;9.40;99.90;;;;;;5075602;28;20236;-86
2022/10/21 03:37:26;;;;;;;11.67;4.87;;;9.40;99.90;;;;;;5075264;28;20177;-85
2022/10/21 03:39:52;;;;;;;12.30;6.40;;;9.40;99.90;;;;;;5075405;28;20171;-85
2022/10/21 03:42:17;;;;;;;10.03;6.70;;;9.40;99.90;;;;;;5075451;28;20570;-84
2022/10/21 03:44:43;;;;;;;9.80;6.10;;;9.40;99.90;;;;;;5075389;28;20185;-85
2022/10/21 03:47:08;;;;;;;8.87;5.90;;;9.40;99.90;;;;;;5075375;28;20186;-85
2022/10/21 03:49:34;;;;;;;10.93;5.80;;;9.40;99.90;;;;;;5074920;28;20205;-85
2022/10/21 03:51:59;;;;;;;6.20;5.07;;;9.40;99.90;;;;;;5074956;28;20181;-85
2022/10/21 03:54:25;;;;;;;13.30;7.23;;;9.30;99.90;;;;;;5075252;28;20320;-83
2022/10/21 03:56:51;;;;;;;9.10;5.80;;;9.30;99.90;;;;;;5075171;28;20170;-85
2022/10/21 03:59:16;;;;;;;10.00;6.23;;;9.40;99.90;;;;;;5075061;28;20637;-83
2022/10/21 04:01:42;;;;;;;12.00;7.60;;;9.30;99.90;;;;;;5075075;28;20197;-84
2022/10/21 04:04:07;;;;;;;11.47;7.53;;;9.30;99.90;;;;;;5075031;28;20256;-84
2022/10/21 04:06:33;;;;;;;9.47;6.40;;;9.30;99.90;;;;;;5074307;28;20229;-84
2022/10/21 04:08:58;;;;;;;9.57;7.13;;;9.30;99.90;;;;;;5074970;28;20173;-84
2022/10/21 04:11:24;;;;;;;12.93;6.97;;;9.30;99.90;;;;;;5074795;28;20214;-84
2022/10/21 04:13:49;;;;;;;13.80;8.73;;;9.30;99.90;;;;;;5074802;28;20262;-84
2022/10/21 04:16:18;;;;;;;9.43;7.10;;;9.20;99.90;;;;;;5074719;28;20662;-84
2022/10/21 04:18:43;;;;;;;17.50;7.30;;;9.30;99.90;;;;;;5074859;28;20180;-84
2022/10/21 04:21:12;;;;;;;9.60;7.10;;;9.20;99.90;;;;;;5074304;28;20413;-84
2022/10/21 04:23:38;;;;;;;12.73;7.40;;;9.20;99.90;;;;;;5074564;28;20179;-83
2022/10/21 04:26:05;;;;;;;10.33;7.13;;;9.30;99.90;;;;;;5074603;28;20408;-84
2022/10/21 04:28:30;;;;;;;12.10;7.17;;;9.20;99.90;;;;;;5074511;28;20265;-84
2022/10/21 04:30:56;;;;;;;12.20;7.30;;;9.20;99.90;;;;;;5074424;28;21031;-83
2022/10/21 04:33:21;;;;;;;8.73;5.37;;;9.20;99.90;;;;;;5074492;28;20197;-83
2022/10/21 04:35:50;;;;;;;10.53;6.03;;;9.20;99.90;;;;;;5073998;28;20539;-83
2022/10/21 04:38:15;;;;;;;12.50;6.80;;;9.20;99.90;;;;;;5074375;28;20524;-84
2022/10/21 04:40:41;;;;;;;10.97;7.40;;;9.20;99.90;;;;;;5074281;28;20420;-84
2022/10/21 04:43:06;;;;;;;10.23;6.73;;;9.20;99.90;;;;;;5074263;28;20197;-84
2022/10/21 04:45:32;;;;;;;13.03;6.93;;;9.20;99.90;;;;;;5074193;28;20178;-84
2022/10/21 04:47:57;;;;;;;11.40;8.07;;;9.20;99.90;;;;;;5074129;28;20509;-84
2022/10/21 04:50:23;;;;;;;11.90;7.27;;;9.20;99.90;;;;;;5073644;28;20568;-83
2022/10/21 04:52:48;;;;;;;12.50;7.40;;;9.20;99.90;;;;;;5074052;28;20197;-84
2022/10/21 04:55:14;;;;;;;9.57;7.73;;;9.20;99.90;;;;;;5073943;28;20656;-84
2022/10/21 04:57:42;;;;;;;13.77;7.40;;;9.20;99.90;;;;;;5073723;28;20232;-84
2022/10/21 05:00:08;;;;;;;18.57;8.70;;;9.20;99.90;;;;;;5073863;28;20659;-85
2022/10/21 05:02:34;;;;;;;12.70;7.10;;;9.20;99.90;;;;;;5073297;28;20453;-84
2022/10/21 05:05:00;;;;;;;15.37;7.77;;;9.30;99.90;;;;;;5073648;28;20454;-84
2022/10/21 05:07:26;;;;;;;15.60;9.23;;;9.30;99.90;;;;;;5073419;28;20423;-84
2022/10/21 05:09:51;;;;;;;9.17;6.70;;;9.30;99.90;;;;;;5073714;28;20258;-84
2022/10/21 05:12:17;;;;;;;9.67;7.93;;;9.30;99.90;;;;;;5073614;28;20411;-84
2022/10/21 05:14:42;;;;;;;10.70;6.37;;;9.30;99.90;;;;;;5073692;28;20211;-83
2022/10/21 05:17:08;;;;;;;9.00;6.20;;;9.20;99.90;;;;;;5073584;28;20295;-84
2022/10/21 05:19:33;;;;;;;10.50;7.67;;;9.30;99.90;;;;;;5073520;28;20190;-84
2022/10/21 05:22:00;;;;;;;13.60;7.93;;;9.20;99.90;;;;;;5073197;28;20254;-83
2022/10/21 05:24:25;;;;;;;10.83;8.07;;;9.20;99.90;;;;;;5073480;28;20177;-84
2022/10/21 05:26:51;;;;;;;12.20;8.50;;;9.20;99.90;;;;;;5073348;28;20412;-84
2022/10/21 05:29:17;;;;;;;9.90;7.07;;;9.20;99.90;;;;;;5073305;28;20174;-84
2022/10/21 05:31:42;;;;;;;16.30;8.20;;;9.20;99.90;;;;;;5073380;28;20182;-84
2022/10/21 05:34:08;;;;;;;8.80;6.17;;;9.20;99.90;;;;;;5073314;28;20165;-83
2022/10/21 05:36:34;;;;;;;16.20;7.30;;;9.20;99.90;;;;;;5073064;28;20253;-85
2022/10/21 05:38:59;;;;;;;10.20;7.57;;;9.20;99.90;;;;;;5073254;28;20254;-84
2022/10/21 05:41:25;;;;;;;15.73;8.23;;;9.20;99.90;;;;;;5073332;28;20168;-83
2022/10/21 05:43:50;;;;;;;10.20;7.97;;;9.20;99.90;;;;;;5073176;28;20168;-83
2022/10/21 05:46:19;;;;;;;13.20;7.57;;;9.20;99.90;;;;;;5073170;28;20226;-82
2022/10/21 05:48:44;;;;;;;13.93;7.87;;;9.20;99.90;;;;;;5073159;28;20170;-83
2022/10/21 05:51:10;;;;;;;12.53;8.93;;;9.20;99.90;;;;;;5072708;28;20528;-83
2022/10/21 05:53:38;;;;;;;13.87;8.17;;;9.20;99.90;;;;;;5073077;28;20172;-85
2022/10/21 05:56:06;;;;;;;8.33;7.17;;;9.20;99.90;;;;;;5073076;28;20175;-83
2022/10/21 05:58:32;;;;;;;16.20;10.10;;;9.30;99.90;;;;;;5072919;28;20406;-83
2022/10/21 06:00:58;;;;;;;14.83;7.67;;;9.30;99.90;;;;;;5073061;28;20925;-83
2022/10/21 06:03:29;;;;;;;14.73;8.53;;;9.30;99.90;;;;;;5073003;28;20807;-84
2022/10/21 06:05:57;;;;;;;18.37;9.37;;;9.40;99.90;;;;;;5072342;28;20839;-83
2022/10/21 06:08:22;;;;;;;13.60;8.47;;;9.30;99.90;;;;;;5073009;28;20420;-83
2022/10/21 06:10:48;;;;;;;12.67;8.43;;;9.30;99.90;;;;;;5073787;28;20471;-84
2022/10/21 06:13:14;;;;;;;16.33;8.60;;;9.40;99.90;;;;;;5077368;28;20169;-84
2022/10/21 06:15:39;;;;;;;9.50;7.93;;;9.40;99.90;;;;;;5079191;28;20169;-84
2022/10/21 06:18:05;;;;;;;14.10;8.80;;;9.40;99.90;;;;;;5077849;28;20199;-84
2022/10/21 06:20:31;;;;;;;14.07;8.13;;;9.40;99.90;;;;;;5076858;28;20197;-84
2022/10/21 06:23:01;;;;;;;14.67;8.70;;;9.50;99.90;;;;;;5077210;28;20197;-85
2022/10/21 06:25:26;;;;;;;10.50;8.50;;;9.40;99.90;;;;;;5077227;28;20201;-83
2022/10/21 06:27:52;;;;;;;13.00;10.00;;;9.50;99.90;;;;;;5076925;28;20395;-84
2022/10/21 06:30:18;;;;;;;14.40;8.70;;;9.50;99.90;;;;;;5077227;28;20259;-84
2022/10/21 06:32:44;;;;;;;13.30;9.13;;;9.50;99.90;;;;;;5077131;28;20415;-83
2022/10/21 06:35:10;;;;;;;13.60;8.50;;;9.60;99.90;;;;;;5076568;28;20793;-85
2022/10/21 06:37:35;;;;;;;13.60;8.70;;;9.60;99.90;;;;;;5077161;28;20162;-85
2022/10/21 06:40:03;;;;;;;16.17;8.07;;;9.60;99.90;;;;;;5058918;28;20172;-84
2022/10/21 06:42:29;;;;;;;15.20;9.27;;;9.60;99.90;;;;;;5076888;28;20311;-83
2022/10/21 06:44:57;;;;;;;15.10;7.63;;;9.70;99.90;;;;;;5076793;28;20473;-83
2022/10/21 06:47:23;;;;;;;15.43;8.00;;;9.70;99.90;;;;;;5076829;28;20177;-84
2022/10/21 06:49:49;;;;;;;13.43;8.43;;;9.80;99.90;;;;;;5076546;28;20447;-86
2022/10/21 06:52:14;;;;;;;15.73;7.60;;;9.80;99.90;;;;;;5058603;28;20181;-84
2022/10/21 06:54:40;;;;;;;14.67;9.07;;;9.80;99.90;;;;;;5076923;28;20165;-85
2022/10/21 06:57:05;;;;;;;16.50;8.37;;;9.90;99.90;;;;;;5076858;28;20249;-84
2022/10/21 06:59:31;;;;;;;14.00;7.50;;;9.90;99.90;;;;;;5076914;28;20177;-83
2022/10/21 07:01:56;;;;;;;15.23;9.90;;;10.00;99.90;;;;;;5076671;28;20688;-85
2022/10/21 07:04:22;;;;;;;13.30;8.90;;;10.10;99.90;;;;;;5076700;28;20204;-85
2022/10/21 07:06:48;;;;;;;13.70;8.43;;;10.00;99.90;;;;;;5076118;28;20218;-86
2022/10/21 07:09:14;;;;;;;15.67;8.47;;;10.10;99.90;;;;;;5058696;28;20578;-86
2022/10/21 07:11:40;;;;;;;9.40;7.70;;;10.00;99.90;;;;;;5076544;28;20237;-86
2022/10/21 07:14:06;;;;;;;13.87;8.33;;;10.10;99.90;;;;;;5076563;28;20418;-84
2022/10/21 07:16:35;;;;;;;17.70;9.17;;;10.00;99.90;;;;;;5076325;28;20175;-84
2022/10/21 07:19:01;;;;;;;12.27;7.67;;;10.00;99.90;;;;;;5076275;28;20417;-83
2022/10/21 07:21:29;;;;;;;14.07;8.40;;;10.10;99.90;;;;;;5075596;28;20528;-83
2022/10/21 07:23:55;;;;;;;11.10;7.60;;;10.10;99.90;;;;;;5075216;28;20420;-83
2022/10/21 07:26:23;;;;;;;12.27;7.60;;;10.20;99.90;;;;;;5075723;28;20935;-84
2022/10/21 07:28:49;;;;;;;14.43;8.60;;;10.20;99.90;;;;;;5075530;28;20423;-83
2022/10/21 07:31:16;;;;;;;13.57;6.77;;;10.30;99.90;;;;;;5075574;28;20472;-84
2022/10/21 07:33:42;;;;;;;14.53;8.63;;;10.30;99.90;;;;;;5075625;28;20815;-84
2022/10/21 07:36:23;;;;;;;11.70;7.70;;;10.40;99.90;;;;;;5057223;28;20428;-84
2022/10/21 07:38:50;;;;;;;13.47;8.43;;;10.40;99.90;;;;;;5075686;28;20172;-85
2022/10/21 07:41:28;;;;;;;12.77;8.13;;;10.50;99.90;;;;;;5075541;28;20411;-82
2022/10/21 07:43:54;;;;;;;12.00;8.00;;;10.80;99.90;;;;;;5075539;28;20931;-82
2022/10/21 07:46:20;;;;;;;13.83;8.40;;;11.20;99.90;;;;;;5075398;28;20537;-83
2022/10/21 07:48:47;;;;;;;15.60;8.40;;;11.10;99.90;;;;;;5075413;28;20811;-83
2022/10/21 07:51:15;;;;;;;13.77;7.70;;;11.20;99.90;;;;;;5056907;28;20475;-83
2022/10/21 07:53:41;;;;;;;12.10;8.40;;;11.00;99.90;;;;;;5075336;28;20414;-82
2022/10/21 07:56:13;;;;;;;12.07;8.00;;;11.00;99.90;;;;;;5075248;28;20849;-82
2022/10/21 07:58:38;;;;;;;11.20;7.57;;;10.90;99.90;;;;;;5075436;28;20422;-84
2022/10/21 08:01:06;;;;;;;12.47;7.43;;;10.90;99.90;;;;;;5057211;28;20422;-82
2022/10/21 08:03:32;;;;;;;12.17;7.70;;;10.70;99.90;;;;;;5057376;28;20168;-85
2022/10/21 08:05:58;;;;;;;13.27;8.13;;;10.70;99.90;;;;;;5074883;28;20459;-87
2022/10/21 08:08:24;;;;;;;11.43;7.33;;;10.70;99.90;;;;;;5075220;28;20829;-84
2022/10/21 08:10:52;;;;;;;15.97;9.30;;;10.60;99.90;;;;;;5071894;28;20239;-83
2022/10/21 08:13:18;;;;;;;13.17;9.27;;;10.40;99.90;;;;;;5069785;28;20417;-83
2022/10/21 08:15:45;;;;;;;11.90;7.90;;;10.40;99.90;;;;;;5053852;28;20427;-82
2022/10/21 08:18:11;;;;;;;12.63;9.40;;;10.40;99.90;;;;;;5067962;28;20416;-83
2022/10/21 08:20:42;;;;;;;9.90;6.83;;;10.40;99.90;;;;;;5074784;28;20410;-81
2022/10/21 08:23:09;;;;;;;18.60;8.97;;;10.50;99.90;;;;;;5074977;28;20418;-82
2022/10/21 08:25:35;;;;;;;12.77;7.60;;;10.40;99.90;;;;;;5074735;28;20808;-81
2022/10/21 08:28:01;;;;;;;11.70;8.00;;;10.40;99.90;;;;;;5074628;28;20408;-82
2022/10/21 08:30:30;;;;;;;9.30;6.20;;;10.40;99.90;;;;;;5074574;28;20218;-83
2022/10/21 08:32:59;;;;;;;13.00;8.57;;;10.40;99.90;;;;;;5074563;28;20835;-83
2022/10/21 08:35:26;;;;;;;13.07;8.87;;;10.30;99.90;;;;;;5073596;28;20474;-81
2022/10/21 08:37:51;;;;;;;16.30;9.03;;;10.30;99.90;;;;;;5073715;28;20413;-82
2022/10/21 08:40:18;;;;;;;12.43;7.50;;;10.40;99.90;;;;;;5074321;28;20770;-84
2022/10/21 08:42:45;;;;;;;13.30;8.00;;;10.40;99.90;;;;;;5074152;28;20552;-82
2022/10/21 08:45:40;;;;;;;13.13;8.20;;;10.40;99.90;;;;;;5074243;28;20416;-83
2022/10/21 08:48:13;;;;;;;17.70;9.57;;;10.40;99.90;;;;;;5074270;28;20441;-84
2022/10/21 08:50:43;;;;;;;13.80;9.27;;;10.40;99.90;;;;;;5074023;28;20472;-83
2022/10/21 08:53:23;;;;;;;14.57;9.00;;;10.40;99.90;;;;;;5074196;28;20755;-83
2022/10/21 08:55:55;;;;;;;12.07;7.70;;;10.40;99.90;;;;;;5057758;28;20461;-84
2022/10/21 08:58:22;;;;;;;20.00;9.83;;;10.40;99.90;;;;;;5074537;28;20764;-85
2022/10/21 09:01:31;;;;;;;9.63;7.70;;;10.40;99.90;;;;;;5074479;28;20490;-81
2022/10/21 09:04:15;;;;;;;12.03;7.60;;;10.40;99.90;;;;;;5056652;28;20435;-84
2022/10/21 09:07:12;;;;;;;12.10;8.20;;;10.50;99.90;;;;;;5073036;28;20818;-81
2022/10/21 09:09:52;;;;;;;13.77;9.17;;;10.60;99.90;;;;;;5073518;28;20409;-83
2022/10/21 09:12:34;;;;;;;11.90;7.90;;;10.70;99.90;;;;;;5073860;28;20543;-83
2022/10/21 09:15:12;;;;;;;12.83;8.50;;;10.90;99.90;;;;;;5073652;28;20457;-88
2022/10/21 09:17:57;;;;;;;12.57;7.87;;;11.00;99.90;;;;;;5074214;28;20407;-92
2022/10/21 09:20:46;;;;;;;16.43;8.10;;;11.00;99.90;;;;;;5073480;28;20937;-82
2022/10/21 09:23:28;;;;;;;13.23;8.20;;;11.10;99.90;;;;;;5073531;28;20986;-88
2022/10/21 09:26:13;;;;;;;8.60;7.40;;;11.20;99.90;;;;;;5073924;28;20414;-86
2022/10/21 09:28:39;;;;;;;8.13;7.27;;;11.20;99.90;;;;;;5073920;28;20409;-89
2022/10/21 09:31:14;;;;;;;11.17;8.37;;;11.30;99.90;;;;;;5073935;28;20472;-82
2022/10/21 09:33:49;;;;;;;13.00;7.70;;;11.50;99.90;;;;;;5073830;28;20178;-89
2022/10/21 09:36:26;;;;;;;11.60;8.73;;;11.60;99.90;;;;;;5073079;28;20940;-87
2022/10/21 09:39:07;;;;;;;11.47;8.70;;;11.80;99.90;;;;;;5073641;28;20770;-88
2022/10/21 09:41:40;;;;;;;11.07;8.20;;;12.00;99.90;;;;;;5074988;28;20435;-84
2022/10/21 09:44:09;;;;;;;11.10;7.70;;;12.20;99.90;;;;;;5076400;28;20473;-90
2022/10/21 09:46:35;;;;;;;12.77;8.13;;;12.30;99.90;;;;;;5073986;28;20412;-85
2022/10/21 09:49:01;;;;;;;11.10;8.50;;;12.30;99.90;;;;;;5073849;28;20408;-88
2022/10/21 09:51:36;;;;;;;11.50;7.90;;;12.20;99.90;;;;;;5073972;28;20204;-88
2022/10/21 09:54:10;;;;;;;14.53;8.40;;;12.40;99.90;;;;;;5074180;28;20411;-85
2022/10/21 09:56:48;;;;;;;10.13;7.40;;;12.60;99.90;;;;;;5075902;28;20412;-90
2022/10/21 09:59:17;;;;;;;11.03;7.60;;;12.70;99.90;;;;;;5076512;28;20442;-88
2022/10/21 10:01:43;;;;;;;10.50;7.67;;;12.80;99.90;;;;;;5077984;28;20415;-89
2022/10/21 10:04:24;;;;;;;11.43;9.00;;;13.30;99.90;;;;;;5077567;28;20408;-89
2022/10/21 10:06:51;;;;;;;9.93;8.33;;;13.80;99.90;;;;;;5076466;28;20468;-89
2022/10/21 10:09:30;;;;;;;12.60;9.73;;;14.00;99.90;;;;;;5077980;28;20424;-88
2022/10/21 10:11:59;;;;;;;10.47;7.67;;;14.40;99.90;;;;;;5077540;28;20443;-90
2022/10/21 10:14:31;;;;;;;9.23;6.43;;;15.60;99.90;;;;;;5074540;28;20483;-87
2022/10/21 10:17:17;;;;;;;10.40;8.80;;;16.60;1.00;;;;;;5064232;28;20453;-90
2022/10/21 10:19:43;;;;;;;8.13;6.77;;;17.60;1.00;;;;;;5052750;28;20420;-89
2022/10/21 10:22:13;;;;;;;10.30;7.07;;;17.90;99.90;;;;;;5053227;28;20419;-89
2022/10/21 10:24:41;;;;;;;7.60;6.10;;;18.20;99.90;;;;;;5053727;28;20204;-85
2022/10/21 10:27:22;;;;;;;7.20;6.23;;;19.20;1.00;;;;;;5054136;28;20779;-85
2022/10/21 10:29:52;;;;;;;9.40;5.60;;;19.70;1.00;;;;;;5055153;28;20450;-86
2022/10/21 10:32:18;;;;;;;6.77;5.50;;;18.50;1.00;;;;;;5072813;28;20565;-88
2022/10/21 10:34:55;;;;;;;7.33;5.43;;;16.90;21.60;;;;;;5066216;28;20509;-89
2022/10/21 10:37:25;;;;;;;11.33;6.17;;;16.10;99.90;;;;;;5062132;28;20494;-88
2022/10/21 10:40:07;;;;;;;8.13;5.23;;;16.10;99.90;;;;;;5049101;28;21039;-87
2022/10/21 10:42:36;;;;;;;9.30;6.10;;;16.80;99.90;;;;;;5061306;28;20410;-86
2022/10/21 10:45:21;;;;;;;8.10;6.87;;;16.90;99.90;;;;;;5066202;28;21025;-87
2022/10/21 10:47:58;;;;;;;8.37;6.37;;;16.90;99.90;;;;;;5062697;28;20577;-87
2022/10/21 10:50:41;;;;;;;9.60;6.80;;;16.70;99.90;;;;;;5052786;28;20461;-88
2022/10/21 10:53:27;;;;;;;6.53;4.93;;;16.40;99.90;;;;;;5060206;28;20415;-88
2022/10/21 10:56:26;;;;;;;9.20;6.53;;;16.50;99.90;;;;;;5061986;28;20418;-87
2022/10/21 10:59:10;;;;;;;10.57;6.50;;;16.20;99.90;;;;;;5054207;28;21008;-88
2022/10/21 11:01:48;;;;;;;7.00;5.60;;;16.40;99.90;;;;;;5076512;28;20686;-87
2022/10/21 11:04:24;;;;;;;8.80;6.60;;;16.50;99.90;;;;;;5075723;28;20441;-90
2022/10/21 11:06:55;;;;;;;9.53;6.40;;;16.40;99.90;;;;;;5076327;28;20460;-89
2022/10/21 11:09:23;;;;;;;7.00;5.60;;;16.60;99.90;;;;;;5062528;28;20418;-87
2022/10/21 11:11:53;;;;;;;7.53;6.57;;;16.80;99.90;;;;;;5060898;28;20508;-88
2022/10/21 11:14:19;;;;;;;6.87;5.90;;;17.50;79.70;;;;;;5058913;28;20413;-84
2022/10/21 11:17:06;;;;;;;9.40;6.10;;;18.90;99.90;;;;;;5056610;28;20758;-86
2022/10/21 11:20:02;;;;;;;8.80;5.63;;;18.30;1.00;;;;;;5055908;28;20493;-88
2022/10/21 11:22:49;;;;;;;8.10;6.43;;;17.30;99.90;;;;;;5056340;28;20417;-88
2022/10/21 11:25:22;;;;;;;11.60;6.20;;;17.20;99.90;;;;;;5055724;28;20408;-83
2022/10/21 11:27:58;;;;;;;9.40;6.10;;;17.00;99.90;;;;;;5055741;28;20417;-90
2022/10/21 11:30:58;;;;;;;8.77;6.43;;;16.80;99.90;;;;;;5056114;28;20463;-89
2022/10/21 11:33:42;;;;;;;8.73;6.20;;;16.60;99.90;;;;;;5056239;28;20494;-90
2022/10/21 11:36:31;;;;;;;7.10;5.93;;;16.70;99.90;;;;;;5055714;28;20439;-91
2022/10/21 11:39:11;;;;;;;7.67;6.30;;;16.70;99.90;;;;;;5055962;28;20412;-92
2022/10/21 11:42:09;;;;;;;6.93;5.83;;;16.80;99.90;;;;;;5056171;28;20734;-85
2022/10/21 11:44:53;;;;;;;7.03;5.90;;;16.90;99.90;;;;;;5055798;28;20405;-84
2022/10/21 11:47:42;;;;;;;7.87;5.33;;;17.80;99.90;;;;;;5055659;28;20981;-85
2022/10/21 11:50:13;;;;;;;7.50;4.70;;;18.00;1.00;;;;;;5055260;28;20466;-86
2022/10/21 11:52:57;;;;;;;6.10;5.27;;;17.70;69.60;;;;;;5059346;28;20448;-91
2022/10/21 11:55:53;;;;;;;8.57;5.57;;;17.50;99.90;;;;;;5055785;28;20771;-87
2022/10/21 11:58:46;;;;;;;8.40;5.53;;;17.80;68.80;;;;;;5057041;28;20418;-87
2022/10/21 12:01:13;;;;;;;9.33;6.30;;;17.30;99.90;;;;;;5058449;28;20895;-89
2022/10/21 12:04:00;;;;;;;7.20;5.83;;;17.30;99.90;;;;;;5056461;28;20440;-87
2022/10/21 12:07:06;;;;;;;10.20;4.87;;;17.50;99.90;;;;;;5057013;28;20465;-87
2022/10/21 12:10:03;;;;;;;5.90;4.80;;;17.40;99.90;;;;;;5022217;28;20557;-89
2022/10/21 12:12:33;;;;;;;8.60;6.70;;;17.10;99.90;;;;;;5029290;28;20437;-89
2022/10/21 12:15:04;;;;;;;8.97;6.43;;;17.20;99.90;;;;;;5055539;28;20882;-88
2022/10/21 12:17:33;;;;;;;9.83;6.77;;;17.00;99.90;;;;;;5055193;28;20425;-90
2022/10/21 12:20:02;;;;;;;9.13;6.07;;;17.00;99.90;;;;;;5053518;28;20420;-91
2022/10/21 12:22:30;;;;;;;7.40;5.90;;;17.20;99.90;;;;;;5059132;28;20916;-84
2022/10/21 12:25:13;;;;;;;9.70;5.70;;;17.40;99.90;;;;;;5063803;28;20424;-84
2022/10/21 12:27:47;;;;;;;7.23;5.80;;;17.30;99.90;;;;;;5072158;28;20423;-92
2022/10/21 12:30:29;;;;;;;10.60;6.47;;;17.00;99.90;;;;;;5075306;28;20844;-89
2022/10/21 12:33:19;;;;;;;8.53;5.80;;;16.90;99.90;;;;;;5075196;28;20468;-86
2022/10/21 12:35:51;;;;;;;7.63;5.40;;;16.80;99.90;;;;;;5074868;28;20423;-87
2022/10/21 12:38:41;;;;;;;7.27;5.07;;;16.80;99.90;;;;;;5074890;28;20412;-85
2022/10/21 12:41:33;;;;;;;9.13;6.40;;;16.70;99.90;;;;;;5074844;28;20408;-92
2022/10/21 12:44:02;;;;;;;8.97;5.80;;;16.60;99.90;;;;;;5075048;28;20486;-88
2022/10/21 12:46:42;;;;;;;8.17;4.97;;;16.60;99.90;;;;;;5075068;28;21052;-91
2022/10/21 12:49:22;;;;;;;7.90;6.00;;;16.60;99.90;;;;;;5067808;28;20410;-84
2022/10/21 12:52:11;;;;;;;8.17;6.13;;;16.60;99.90;;;;;;5052509;28;20510;-93
2022/10/21 12:54:53;;;;;;;9.00;5.17;;;16.40;99.90;;;;;;5062666;28;20483;-86
2022/10/21 12:57:30;;;;;;;11.07;6.47;;;16.50;99.90;;;;;;5064247;28;20437;-91
2022/10/21 13:00:21;;;;;;;11.43;6.33;;;16.50;99.90;;;;;;5065537;28;20427;-88
2022/10/21 13:02:58;;;;;;;6.37;5.30;;;16.40;99.90;;;;;;5061410;28;20824;-89
2022/10/21 13:05:36;;;;;;;9.00;5.50;;;16.50;99.90;;;;;;5048233;28;20441;-91
2022/10/21 13:08:26;;;;;;;10.60;6.53;;;16.50;99.90;;;;;;5063864;28;20428;-85
2022/10/21 13:11:04;;;;;;;8.23;5.73;;;16.60;99.90;;;;;;5064401;28;20469;-90
2022/10/21 13:13:31;;;;;;;7.90;5.57;;;16.50;99.90;;;;;;5059783;28;20435;-91